Gilman, Vermont
Current Conditions -  °F | °C
As of 6:52 PM on Sunday 25 Jan 2015 (Local Time) from KHIE Reporting Station
Clear Clear  
Wind Chill:   Ceiling: Unl
Heat Index:   Visibility: 10mi
Dew Point: -4°   Wind: 3mph
Humidity: 66%   Direction: 260°W
Pressure: 29.88"   Gusts: NA
Location:  44.41°N, 71.72°W
Report Text: KHIE 252352Z AUTO 26003KT 10SM CLR M15/M20 A2988 RMK AO2 SLP139 T11501200 11089 21150 53026
Loading
Personal Weather Stations






























Interactive Weather Map New forecast layout! Learn more

10-Day Weather Forecast

Advertisements
Track Severe Weather on mobile